sensor_id;sensor_type;location;lat;lon;timestamp;P1;durP1;ratioP1;P2;durP2;ratioP2
55720;SDS011;41626;53.098;6.168;2023-02-15T00:02:18;34.20;;;28.80;;
55720;SDS011;41626;53.098;6.168;2023-02-15T00:04:45;35.45;;;29.65;;
55720;SDS011;41626;53.098;6.168;2023-02-15T00:07:17;33.85;;;29.13;;
55720;SDS011;41626;53.098;6.168;2023-02-15T00:09:46;34.13;;;27.98;;
55720;SDS011;41626;53.098;6.168;2023-02-15T00:12:12;33.80;;;28.90;;
55720;SDS011;41626;53.098;6.168;2023-02-15T00:14:38;34.20;;;28.45;;
55720;SDS011;41626;53.098;6.168;2023-02-15T00:17:04;37.47;;;31.60;;
55720;SDS011;41626;53.098;6.168;2023-02-15T00:19:29;32.17;;;27.38;;
55720;SDS011;41626;53.098;6.168;2023-02-15T00:21:55;39.83;;;31.52;;
55720;SDS011;41626;53.098;6.168;2023-02-15T00:24:21;36.90;;;31.02;;
55720;SDS011;41626;53.098;6.168;2023-02-15T00:26:47;35.28;;;29.33;;
55720;SDS011;41626;53.098;6.168;2023-02-15T00:29:14;38.08;;;30.73;;
55720;SDS011;41626;53.098;6.168;2023-02-15T00:31:41;38.25;;;30.67;;
55720;SDS011;41626;53.098;6.168;2023-02-15T00:34:10;115.18;;;36.35;;
55720;SDS011;41626;53.098;6.168;2023-02-15T00:36:40;267.77;;;47.45;;
55720;SDS011;41626;53.098;6.168;2023-02-15T00:39:07;71.00;;;38.35;;
55720;SDS011;41626;53.098;6.168;2023-02-15T00:41:33;114.25;;;39.70;;
55720;SDS011;41626;53.098;6.168;2023-02-15T00:43:59;131.55;;;42.70;;
55720;SDS011;41626;53.098;6.168;2023-02-15T00:46:25;157.37;;;44.90;;
55720;SDS011;41626;53.098;6.168;2023-02-15T00:48:51;86.18;;;39.85;;
55720;SDS011;41626;53.098;6.168;2023-02-15T00:51:16;192.85;;;47.97;;
55720;SDS011;41626;53.098;6.168;2023-02-15T00:53:42;340.52;;;59.33;;
55720;SDS011;41626;53.098;6.168;2023-02-15T00:56:09;274.35;;;56.85;;
55720;SDS011;41626;53.098;6.168;2023-02-15T00:58:36;133.65;;;43.80;;
55720;SDS011;41626;53.098;6.168;2023-02-15T01:01:02;85.60;;;41.70;;
55720;SDS011;41626;53.098;6.168;2023-02-15T01:03:30;78.57;;;42.33;;
55720;SDS011;41626;53.098;6.168;2023-02-15T01:05:56;67.22;;;36.88;;
55720;SDS011;41626;53.098;6.168;2023-02-15T01:08:21;48.03;;;33.95;;
55720;SDS011;41626;53.098;6.168;2023-02-15T01:10:47;44.45;;;35.13;;
55720;SDS011;41626;53.098;6.168;2023-02-15T01:13:15;80.88;;;36.33;;
55720;SDS011;41626;53.098;6.168;2023-02-15T01:15:41;71.80;;;37.25;;
55720;SDS011;41626;53.098;6.168;2023-02-15T01:18:07;51.50;;;33.73;;
55720;SDS011;41626;53.098;6.168;2023-02-15T01:20:34;55.90;;;33.78;;
55720;SDS011;41626;53.098;6.168;2023-02-15T01:23:02;40.90;;;30.95;;
55720;SDS011;41626;53.098;6.168;2023-02-15T01:25:27;42.90;;;32.78;;
55720;SDS011;41626;53.098;6.168;2023-02-15T01:27:53;39.57;;;32.00;;
55720;SDS011;41626;53.098;6.168;2023-02-15T01:30:19;41.63;;;33.57;;
55720;SDS011;41626;53.098;6.168;2023-02-15T01:32:44;46.03;;;36.50;;
55720;SDS011;41626;53.098;6.168;2023-02-15T01:35:10;43.35;;;35.95;;
55720;SDS011;41626;53.098;6.168;2023-02-15T01:37:36;38.80;;;33.10;;
55720;SDS011;41626;53.098;6.168;2023-02-15T01:40:02;39.28;;;32.78;;
55720;SDS011;41626;53.098;6.168;2023-02-15T01:42:30;36.13;;;30.77;;
55720;SDS011;41626;53.098;6.168;2023-02-15T01:44:57;36.20;;;32.00;;
55720;SDS011;41626;53.098;6.168;2023-02-15T01:52:48;33.07;;;29.17;;
55720;SDS011;41626;53.098;6.168;2023-02-15T01:55:27;32.47;;;28.97;;
55720;SDS011;41626;53.098;6.168;2023-02-15T01:57:58;33.42;;;28.63;;
55720;SDS011;41626;53.098;6.168;2023-02-15T02:00:24;34.13;;;28.58;;
55720;SDS011;41626;53.098;6.168;2023-02-15T02:02:51;36.05;;;27.63;;
55720;SDS011;41626;53.098;6.168;2023-02-15T02:05:20;33.03;;;28.77;;
55720;SDS011;41626;53.098;6.168;2023-02-15T02:07:46;29.25;;;26.17;;
55720;SDS011;41626;53.098;6.168;2023-02-15T02:10:16;30.23;;;26.33;;
55720;SDS011;41626;53.098;6.168;2023-02-15T02:12:44;33.85;;;29.17;;
55720;SDS011;41626;53.098;6.168;2023-02-15T02:15:12;32.22;;;28.65;;
55720;SDS011;41626;53.098;6.168;2023-02-15T02:33:49;85.82;;;32.47;;
55720;SDS011;41626;53.098;6.168;2023-02-15T02:44:44;404.65;;;55.63;;
55720;SDS011;41626;53.098;6.168;2023-02-15T02:49:59;247.50;;;44.83;;
55720;SDS011;41626;53.098;6.168;2023-02-15T02:55:30;247.10;;;46.47;;
55720;SDS011;41626;53.098;6.168;2023-02-15T03:00:33;259.20;;;42.03;;
55720;SDS011;41626;53.098;6.168;2023-02-15T03:03:05;319.63;;;53.10;;
55720;SDS011;41626;53.098;6.168;2023-02-15T03:05:36;252.07;;;46.42;;
55720;SDS011;41626;53.098;6.168;2023-02-15T03:08:06;305.42;;;54.58;;
55720;SDS011;41626;53.098;6.168;2023-02-15T03:10:35;187.45;;;47.20;;
55720;SDS011;41626;53.098;6.168;2023-02-15T03:13:02;336.15;;;65.32;;
55720;SDS011;41626;53.098;6.168;2023-02-15T03:15:31;208.87;;;47.23;;
55720;SDS011;41626;53.098;6.168;2023-02-15T03:18:22;162.23;;;41.10;;
55720;SDS011;41626;53.098;6.168;2023-02-15T03:20:50;161.27;;;41.08;;
55720;SDS011;41626;53.098;6.168;2023-02-15T03:23:18;174.75;;;42.03;;
55720;SDS011;41626;53.098;6.168;2023-02-15T03:25:51;118.00;;;39.97;;
55720;SDS011;41626;53.098;6.168;2023-02-15T03:28:27;107.47;;;38.85;;
55720;SDS011;41626;53.098;6.168;2023-02-15T03:30:57;85.05;;;36.33;;
55720;SDS011;41626;53.098;6.168;2023-02-15T03:33:27;101.97;;;38.58;;
55720;SDS011;41626;53.098;6.168;2023-02-15T03:35:57;69.32;;;37.35;;
55720;SDS011;41626;53.098;6.168;2023-02-15T03:41:46;65.53;;;37.67;;
55720;SDS011;41626;53.098;6.168;2023-02-15T03:44:23;87.35;;;40.13;;
55720;SDS011;41626;53.098;6.168;2023-02-15T03:46:58;76.70;;;39.22;;
55720;SDS011;41626;53.098;6.168;2023-02-15T03:49:40;59.30;;;39.40;;
55720;SDS011;41626;53.098;6.168;2023-02-15T03:52:10;84.28;;;43.40;;
55720;SDS011;41626;53.098;6.168;2023-02-15T03:54:38;97.88;;;45.50;;
55720;SDS011;41626;53.098;6.168;2023-02-15T04:00:16;47.53;;;37.13;;
55720;SDS011;41626;53.098;6.168;2023-02-15T04:05:34;41.70;;;34.42;;
55720;SDS011;41626;53.098;6.168;2023-02-15T04:08:00;37.22;;;32.92;;
55720;SDS011;41626;53.098;6.168;2023-02-15T04:10:26;43.50;;;34.75;;
55720;SDS011;41626;53.098;6.168;2023-02-15T04:13:10;46.65;;;36.17;;
55720;SDS011;41626;53.098;6.168;2023-02-15T04:15:35;39.83;;;34.57;;
55720;SDS011;41626;53.098;6.168;2023-02-15T04:18:20;43.67;;;35.53;;
55720;SDS011;41626;53.098;6.168;2023-02-15T04:20:45;42.72;;;36.13;;
55720;SDS011;41626;53.098;6.168;2023-02-15T04:23:30;48.45;;;38.08;;
55720;SDS011;41626;53.098;6.168;2023-02-15T04:26:15;56.78;;;40.45;;
55720;SDS011;41626;53.098;6.168;2023-02-15T04:28:41;48.45;;;38.10;;
55720;SDS011;41626;53.098;6.168;2023-02-15T04:31:07;42.20;;;35.05;;
55720;SDS011;41626;53.098;6.168;2023-02-15T04:33:32;46.30;;;36.75;;
55720;SDS011;41626;53.098;6.168;2023-02-15T04:35:59;42.35;;;33.67;;
55720;SDS011;41626;53.098;6.168;2023-02-15T04:38:25;41.45;;;34.28;;
55720;SDS011;41626;53.098;6.168;2023-02-15T04:40:51;40.70;;;35.05;;
55720;SDS011;41626;53.098;6.168;2023-02-15T04:43:18;41.50;;;34.88;;
55720;SDS011;41626;53.098;6.168;2023-02-15T04:45:50;43.03;;;34.95;;
55720;SDS011;41626;53.098;6.168;2023-02-15T04:48:17;46.35;;;38.28;;
55720;SDS011;41626;53.098;6.168;2023-02-15T04:50:43;44.42;;;37.25;;
55720;SDS011;41626;53.098;6.168;2023-02-15T04:53:09;42.92;;;36.53;;
55720;SDS011;41626;53.098;6.168;2023-02-15T04:55:35;45.37;;;37.13;;
55720;SDS011;41626;53.098;6.168;2023-02-15T04:58:01;45.63;;;37.90;;
55720;SDS011;41626;53.098;6.168;2023-02-15T05:00:26;51.43;;;40.43;;
55720;SDS011;41626;53.098;6.168;2023-02-15T05:02:52;51.10;;;39.70;;
55720;SDS011;41626;53.098;6.168;2023-02-15T05:05:18;46.92;;;36.58;;
55720;SDS011;41626;53.098;6.168;2023-02-15T05:07:44;39.17;;;33.22;;
55720;SDS011;41626;53.098;6.168;2023-02-15T05:10:10;39.22;;;33.15;;
55720;SDS011;41626;53.098;6.168;2023-02-15T05:12:35;39.72;;;33.28;;
55720;SDS011;41626;53.098;6.168;2023-02-15T05:15:01;40.10;;;34.03;;
55720;SDS011;41626;53.098;6.168;2023-02-15T05:17:27;41.00;;;34.40;;
55720;SDS011;41626;53.098;6.168;2023-02-15T05:19:52;48.27;;;38.27;;
55720;SDS011;41626;53.098;6.168;2023-02-15T05:22:18;58.37;;;46.07;;
55720;SDS011;41626;53.098;6.168;2023-02-15T05:24:44;57.63;;;44.97;;
55720;SDS011;41626;53.098;6.168;2023-02-15T05:27:28;68.53;;;48.70;;
55720;SDS011;41626;53.098;6.168;2023-02-15T05:30:12;70.22;;;51.35;;
55720;SDS011;41626;53.098;6.168;2023-02-15T05:32:39;70.97;;;51.90;;
55720;SDS011;41626;53.098;6.168;2023-02-15T05:35:05;86.05;;;58.05;;
55720;SDS011;41626;53.098;6.168;2023-02-15T05:37:32;74.45;;;54.28;;
55720;SDS011;41626;53.098;6.168;2023-02-15T05:39:58;69.97;;;51.97;;
55720;SDS011;41626;53.098;6.168;2023-02-15T05:42:23;77.63;;;53.47;;
55720;SDS011;41626;53.098;6.168;2023-02-15T05:44:49;72.43;;;54.60;;
55720;SDS011;41626;53.098;6.168;2023-02-15T05:47:15;75.23;;;53.53;;
55720;SDS011;41626;53.098;6.168;2023-02-15T05:49:40;78.33;;;54.27;;
55720;SDS011;41626;53.098;6.168;2023-02-15T05:52:06;75.60;;;57.20;;
55720;SDS011;41626;53.098;6.168;2023-02-15T05:54:31;81.47;;;56.03;;
55720;SDS011;41626;53.098;6.168;2023-02-15T05:56:57;88.53;;;60.20;;
55720;SDS011;41626;53.098;6.168;2023-02-15T05:59:23;83.90;;;56.43;;
55720;SDS011;41626;53.098;6.168;2023-02-15T06:01:49;107.75;;;68.80;;
55720;SDS011;41626;53.098;6.168;2023-02-15T06:04:14;98.57;;;63.88;;
55720;SDS011;41626;53.098;6.168;2023-02-15T06:06:40;106.15;;;66.75;;
55720;SDS011;41626;53.098;6.168;2023-02-15T06:09:05;107.65;;;66.00;;
55720;SDS011;41626;53.098;6.168;2023-02-15T06:11:31;126.35;;;69.70;;
55720;SDS011;41626;53.098;6.168;2023-02-15T06:13:57;142.02;;;74.43;;
55720;SDS011;41626;53.098;6.168;2023-02-15T06:16:22;95.07;;;60.92;;
55720;SDS011;41626;53.098;6.168;2023-02-15T06:18:48;105.93;;;64.90;;
55720;SDS011;41626;53.098;6.168;2023-02-15T06:21:14;133.90;;;71.18;;
55720;SDS011;41626;53.098;6.168;2023-02-15T06:23:39;98.43;;;63.00;;
55720;SDS011;41626;53.098;6.168;2023-02-15T06:26:05;98.32;;;64.53;;
55720;SDS011;41626;53.098;6.168;2023-02-15T06:28:31;102.93;;;64.43;;
55720;SDS011;41626;53.098;6.168;2023-02-15T06:30:56;92.23;;;62.00;;
55720;SDS011;41626;53.098;6.168;2023-02-15T06:33:22;103.33;;;64.20;;
55720;SDS011;41626;53.098;6.168;2023-02-15T06:35:48;97.00;;;63.63;;
55720;SDS011;41626;53.098;6.168;2023-02-15T06:38:13;88.50;;;59.83;;
55720;SDS011;41626;53.098;6.168;2023-02-15T06:40:39;111.53;;;66.93;;
55720;SDS011;41626;53.098;6.168;2023-02-15T06:43:05;90.87;;;59.60;;
55720;SDS011;41626;53.098;6.168;2023-02-15T06:45:30;90.33;;;60.63;;
55720;SDS011;41626;53.098;6.168;2023-02-15T06:47:56;99.03;;;63.03;;
55720;SDS011;41626;53.098;6.168;2023-02-15T06:50:22;106.87;;;64.57;;
55720;SDS011;41626;53.098;6.168;2023-02-15T06:52:47;78.30;;;56.80;;
55720;SDS011;41626;53.098;6.168;2023-02-15T06:55:13;88.13;;;58.33;;
55720;SDS011;41626;53.098;6.168;2023-02-15T06:57:39;84.90;;;56.73;;
55720;SDS011;41626;53.098;6.168;2023-02-15T07:00:04;94.28;;;60.90;;
55720;SDS011;41626;53.098;6.168;2023-02-15T07:02:31;90.72;;;59.30;;
55720;SDS011;41626;53.098;6.168;2023-02-15T07:04:56;89.30;;;57.70;;
55720;SDS011;41626;53.098;6.168;2023-02-15T07:07:22;96.53;;;59.60;;
55720;SDS011;41626;53.098;6.168;2023-02-15T07:09:48;86.75;;;59.00;;
55720;SDS011;41626;53.098;6.168;2023-02-15T07:12:13;80.45;;;56.25;;
55720;SDS011;41626;53.098;6.168;2023-02-15T07:14:57;89.00;;;57.63;;
55720;SDS011;41626;53.098;6.168;2023-02-15T07:17:23;75.93;;;52.00;;
55720;SDS011;41626;53.098;6.168;2023-02-15T07:19:53;80.47;;;52.78;;
55720;SDS011;41626;53.098;6.168;2023-02-15T07:22:19;77.07;;;54.10;;
55720;SDS011;41626;53.098;6.168;2023-02-15T07:24:45;81.50;;;57.05;;
55720;SDS011;41626;53.098;6.168;2023-02-15T07:27:10;76.18;;;53.92;;
55720;SDS011;41626;53.098;6.168;2023-02-15T07:29:36;88.25;;;56.08;;
55720;SDS011;41626;53.098;6.168;2023-02-15T07:32:02;68.53;;;50.05;;
55720;SDS011;41626;53.098;6.168;2023-02-15T07:34:27;68.60;;;50.03;;
55720;SDS011;41626;53.098;6.168;2023-02-15T07:36:53;82.03;;;53.30;;
55720;SDS011;41626;53.098;6.168;2023-02-15T07:39:19;68.50;;;50.13;;
55720;SDS011;41626;53.098;6.168;2023-02-15T07:41:44;68.30;;;48.17;;
55720;SDS011;41626;53.098;6.168;2023-02-15T07:44:11;64.27;;;46.17;;
55720;SDS011;41626;53.098;6.168;2023-02-15T07:46:38;70.95;;;47.95;;
55720;SDS011;41626;53.098;6.168;2023-02-15T07:49:04;69.43;;;49.55;;
55720;SDS011;41626;53.098;6.168;2023-02-15T07:51:29;65.30;;;47.35;;
55720;SDS011;41626;53.098;6.168;2023-02-15T07:53:55;69.13;;;47.72;;
55720;SDS011;41626;53.098;6.168;2023-02-15T07:56:21;57.08;;;43.90;;
55720;SDS011;41626;53.098;6.168;2023-02-15T07:58:46;55.15;;;42.78;;
55720;SDS011;41626;53.098;6.168;2023-02-15T08:01:25;59.20;;;44.95;;
55720;SDS011;41626;53.098;6.168;2023-02-15T08:03:53;57.60;;;43.55;;
55720;SDS011;41626;53.098;6.168;2023-02-15T08:06:19;56.50;;;41.95;;
55720;SDS011;41626;53.098;6.168;2023-02-15T08:08:46;53.10;;;39.92;;
55720;SDS011;41626;53.098;6.168;2023-02-15T08:11:31;54.20;;;40.80;;
55720;SDS011;41626;53.098;6.168;2023-02-15T08:19:08;48.10;;;37.90;;
55720;SDS011;41626;53.098;6.168;2023-02-15T08:21:40;51.20;;;39.88;;
55720;SDS011;41626;53.098;6.168;2023-02-15T08:24:07;48.97;;;39.53;;
55720;SDS011;41626;53.098;6.168;2023-02-15T08:26:34;50.25;;;38.65;;
55720;SDS011;41626;53.098;6.168;2023-02-15T08:29:00;48.87;;;38.43;;
55720;SDS011;41626;53.098;6.168;2023-02-15T08:31:27;49.08;;;39.05;;
55720;SDS011;41626;53.098;6.168;2023-02-15T08:33:54;49.90;;;38.00;;
55720;SDS011;41626;53.098;6.168;2023-02-15T08:36:22;50.25;;;38.67;;
55720;SDS011;41626;53.098;6.168;2023-02-15T08:38:50;49.60;;;37.70;;
55720;SDS011;41626;53.098;6.168;2023-02-15T08:41:17;49.05;;;38.35;;
55720;SDS011;41626;53.098;6.168;2023-02-15T08:43:44;47.40;;;37.80;;
55720;SDS011;41626;53.098;6.168;2023-02-15T08:46:13;47.28;;;36.80;;
55720;SDS011;41626;53.098;6.168;2023-02-15T08:48:40;45.25;;;35.38;;
55720;SDS011;41626;53.098;6.168;2023-02-15T08:51:07;45.90;;;36.83;;
55720;SDS011;41626;53.098;6.168;2023-02-15T08:53:35;47.17;;;36.58;;
55720;SDS011;41626;53.098;6.168;2023-02-15T08:56:02;42.17;;;35.43;;
55720;SDS011;41626;53.098;6.168;2023-02-15T08:58:28;45.55;;;35.55;;
55720;SDS011;41626;53.098;6.168;2023-02-15T09:00:58;46.90;;;36.70;;
55720;SDS011;41626;53.098;6.168;2023-02-15T09:03:24;43.97;;;36.17;;
55720;SDS011;41626;53.098;6.168;2023-02-15T09:05:49;45.33;;;33.70;;
55720;SDS011;41626;53.098;6.168;2023-02-15T09:08:15;44.30;;;34.83;;
55720;SDS011;41626;53.098;6.168;2023-02-15T09:10:41;45.95;;;35.75;;
55720;SDS011;41626;53.098;6.168;2023-02-15T09:13:07;43.33;;;34.65;;
55720;SDS011;41626;53.098;6.168;2023-02-15T09:15:33;46.72;;;36.47;;
55720;SDS011;41626;53.098;6.168;2023-02-15T09:17:58;41.20;;;32.70;;
55720;SDS011;41626;53.098;6.168;2023-02-15T09:20:26;42.55;;;34.17;;
55720;SDS011;41626;53.098;6.168;2023-02-15T09:22:53;44.08;;;35.15;;
55720;SDS011;41626;53.098;6.168;2023-02-15T09:25:19;45.90;;;35.35;;
55720;SDS011;41626;53.098;6.168;2023-02-15T09:27:45;40.80;;;33.83;;
55720;SDS011;41626;53.098;6.168;2023-02-15T09:30:10;41.55;;;34.88;;
55720;SDS011;41626;53.098;6.168;2023-02-15T09:32:37;43.67;;;34.90;;
55720;SDS011;41626;53.098;6.168;2023-02-15T09:35:03;43.50;;;34.17;;
55720;SDS011;41626;53.098;6.168;2023-02-15T09:37:29;44.20;;;35.33;;
55720;SDS011;41626;53.098;6.168;2023-02-15T09:39:56;44.10;;;35.40;;
55720;SDS011;41626;53.098;6.168;2023-02-15T09:50:55;46.00;;;37.27;;
55720;SDS011;41626;53.098;6.168;2023-02-15T09:56:47;43.40;;;36.08;;
55720;SDS011;41626;53.098;6.168;2023-02-15T10:13:57;46.10;;;36.58;;
55720;SDS011;41626;53.098;6.168;2023-02-15T10:16:35;47.17;;;36.37;;
55720;SDS011;41626;53.098;6.168;2023-02-15T10:25:07;46.25;;;36.95;;
55720;SDS011;41626;53.098;6.168;2023-02-15T10:27:44;45.27;;;34.87;;
55720;SDS011;41626;53.098;6.168;2023-02-15T10:30:16;43.15;;;37.00;;
55720;SDS011;41626;53.098;6.168;2023-02-15T10:35:27;42.53;;;35.33;;
55720;SDS011;41626;53.098;6.168;2023-02-15T10:41:17;43.65;;;35.72;;
55720;SDS011;41626;53.098;6.168;2023-02-15T10:46:53;43.57;;;35.03;;
55720;SDS011;41626;53.098;6.168;2023-02-15T11:06:08;42.97;;;35.25;;
55720;SDS011;41626;53.098;6.168;2023-02-15T11:08:40;45.38;;;35.95;;
55720;SDS011;41626;53.098;6.168;2023-02-15T11:11:19;46.33;;;33.45;;
55720;SDS011;41626;53.098;6.168;2023-02-15T11:13:50;43.50;;;33.20;;
55720;SDS011;41626;53.098;6.168;2023-02-15T11:16:30;41.65;;;33.28;;
55720;SDS011;41626;53.098;6.168;2023-02-15T11:19:15;43.97;;;34.53;;
55720;SDS011;41626;53.098;6.168;2023-02-15T11:21:44;45.03;;;34.00;;
55720;SDS011;41626;53.098;6.168;2023-02-15T11:24:16;41.15;;;32.97;;
55720;SDS011;41626;53.098;6.168;2023-02-15T11:26:59;44.58;;;33.47;;
55720;SDS011;41626;53.098;6.168;2023-02-15T11:40:17;44.45;;;34.67;;
55720;SDS011;41626;53.098;6.168;2023-02-15T11:42:45;41.80;;;32.65;;
55720;SDS011;41626;53.098;6.168;2023-02-15T11:47:46;42.53;;;35.13;;
55720;SDS011;41626;53.098;6.168;2023-02-15T11:50:17;47.63;;;37.25;;
55720;SDS011;41626;53.098;6.168;2023-02-15T11:52:50;46.17;;;36.85;;
55720;SDS011;41626;53.098;6.168;2023-02-15T11:55:21;49.38;;;37.97;;
55720;SDS011;41626;53.098;6.168;2023-02-15T12:01:18;49.38;;;36.70;;
55720;SDS011;41626;53.098;6.168;2023-02-15T12:04:02;46.53;;;37.40;;
55720;SDS011;41626;53.098;6.168;2023-02-15T12:06:45;47.85;;;39.10;;
55720;SDS011;41626;53.098;6.168;2023-02-15T12:09:33;49.15;;;37.95;;
55720;SDS011;41626;53.098;6.168;2023-02-15T12:12:24;50.47;;;38.88;;
55720;SDS011;41626;53.098;6.168;2023-02-15T12:14:53;52.75;;;41.50;;
55720;SDS011;41626;53.098;6.168;2023-02-15T12:17:20;49.22;;;38.00;;
55720;SDS011;41626;53.098;6.168;2023-02-15T12:19:48;46.67;;;37.22;;
55720;SDS011;41626;53.098;6.168;2023-02-15T12:22:19;48.45;;;38.97;;
55720;SDS011;41626;53.098;6.168;2023-02-15T12:24:46;49.30;;;37.45;;
55720;SDS011;41626;53.098;6.168;2023-02-15T12:29:59;47.00;;;35.63;;
55720;SDS011;41626;53.098;6.168;2023-02-15T12:32:33;47.07;;;34.87;;
55720;SDS011;41626;53.098;6.168;2023-02-15T12:35:06;46.42;;;35.92;;
55720;SDS011;41626;53.098;6.168;2023-02-15T12:37:38;43.15;;;32.78;;
55720;SDS011;41626;53.098;6.168;2023-02-15T12:40:28;46.17;;;36.15;;
55720;SDS011;41626;53.098;6.168;2023-02-15T12:42:54;45.30;;;35.17;;
55720;SDS011;41626;53.098;6.168;2023-02-15T12:45:28;42.83;;;35.17;;
55720;SDS011;41626;53.098;6.168;2023-02-15T12:50:35;41.60;;;32.95;;
55720;SDS011;41626;53.098;6.168;2023-02-15T12:53:10;41.38;;;31.65;;
55720;SDS011;41626;53.098;6.168;2023-02-15T12:55:59;45.30;;;33.03;;
55720;SDS011;41626;53.098;6.168;2023-02-15T12:58:27;44.45;;;32.70;;
55720;SDS011;41626;53.098;6.168;2023-02-15T13:06:25;40.85;;;33.10;;
55720;SDS011;41626;53.098;6.168;2023-02-15T13:08:56;42.00;;;32.47;;
55720;SDS011;41626;53.098;6.168;2023-02-15T13:11:30;41.33;;;33.28;;
55720;SDS011;41626;53.098;6.168;2023-02-15T13:14:03;42.17;;;32.15;;
55720;SDS011;41626;53.098;6.168;2023-02-15T13:16:50;39.58;;;31.10;;
55720;SDS011;41626;53.098;6.168;2023-02-15T13:19:19;40.85;;;32.53;;
55720;SDS011;41626;53.098;6.168;2023-02-15T13:21:52;40.30;;;31.65;;
55720;SDS011;41626;53.098;6.168;2023-02-15T13:24:24;41.00;;;30.53;;
55720;SDS011;41626;53.098;6.168;2023-02-15T13:26:52;37.92;;;30.70;;
55720;SDS011;41626;53.098;6.168;2023-02-15T13:29:24;40.88;;;31.10;;
55720;SDS011;41626;53.098;6.168;2023-02-15T13:31:51;41.20;;;32.28;;
55720;SDS011;41626;53.098;6.168;2023-02-15T13:34:28;41.08;;;30.77;;
55720;SDS011;41626;53.098;6.168;2023-02-15T13:51:21;40.53;;;33.72;;
55720;SDS011;41626;53.098;6.168;2023-02-15T14:10:25;39.72;;;29.40;;
55720;SDS011;41626;53.098;6.168;2023-02-15T14:13:19;39.97;;;30.73;;
55720;SDS011;41626;53.098;6.168;2023-02-15T14:18:45;38.72;;;30.42;;
55720;SDS011;41626;53.098;6.168;2023-02-15T14:26:21;43.10;;;30.55;;
55720;SDS011;41626;53.098;6.168;2023-02-15T14:32:11;43.03;;;33.42;;
55720;SDS011;41626;53.098;6.168;2023-02-15T14:35:02;39.20;;;30.10;;
55720;SDS011;41626;53.098;6.168;2023-02-15T14:40:41;38.80;;;30.05;;
55720;SDS011;41626;53.098;6.168;2023-02-15T14:49:11;41.83;;;31.85;;
55720;SDS011;41626;53.098;6.168;2023-02-15T14:57:31;40.83;;;32.90;;
55720;SDS011;41626;53.098;6.168;2023-02-15T15:07:44;39.65;;;30.92;;
55720;SDS011;41626;53.098;6.168;2023-02-15T15:12:42;39.38;;;31.58;;
55720;SDS011;41626;53.098;6.168;2023-02-15T15:17:57;40.95;;;32.75;;
55720;SDS011;41626;53.098;6.168;2023-02-15T15:25:40;40.13;;;31.47;;
55720;SDS011;41626;53.098;6.168;2023-02-15T15:28:52;39.63;;;30.80;;
55720;SDS011;41626;53.098;6.168;2023-02-15T15:50:53;41.53;;;33.00;;
55720;SDS011;41626;53.098;6.168;2023-02-15T15:53:27;41.78;;;33.17;;
55720;SDS011;41626;53.098;6.168;2023-02-15T15:56:04;45.07;;;34.27;;
55720;SDS011;41626;53.098;6.168;2023-02-15T15:58:35;39.08;;;32.03;;
55720;SDS011;41626;53.098;6.168;2023-02-15T16:01:07;42.63;;;35.13;;
55720;SDS011;41626;53.098;6.168;2023-02-15T16:03:47;41.58;;;33.53;;
55720;SDS011;41626;53.098;6.168;2023-02-15T16:06:35;41.05;;;31.13;;
55720;SDS011;41626;53.098;6.168;2023-02-15T16:11:43;39.97;;;34.33;;
55720;SDS011;41626;53.098;6.168;2023-02-15T16:14:11;42.80;;;35.47;;
55720;SDS011;41626;53.098;6.168;2023-02-15T16:16:47;42.60;;;35.53;;
55720;SDS011;41626;53.098;6.168;2023-02-15T16:19:38;43.90;;;36.17;;
55720;SDS011;41626;53.098;6.168;2023-02-15T16:22:03;42.40;;;34.22;;
55720;SDS011;41626;53.098;6.168;2023-02-15T16:27:49;42.13;;;35.00;;
55720;SDS011;41626;53.098;6.168;2023-02-15T16:32:48;43.67;;;35.00;;
55720;SDS011;41626;53.098;6.168;2023-02-15T16:35:18;42.35;;;34.28;;
55720;SDS011;41626;53.098;6.168;2023-02-15T16:37:45;44.67;;;34.58;;
55720;SDS011;41626;53.098;6.168;2023-02-15T16:42:52;46.65;;;35.40;;
55720;SDS011;41626;53.098;6.168;2023-02-15T16:45:22;45.28;;;36.38;;
55720;SDS011;41626;53.098;6.168;2023-02-15T16:47:53;40.75;;;34.22;;
55720;SDS011;41626;53.098;6.168;2023-02-15T16:50:23;46.20;;;37.00;;
55720;SDS011;41626;53.098;6.168;2023-02-15T16:52:57;43.47;;;36.63;;
55720;SDS011;41626;53.098;6.168;2023-02-15T16:55:24;44.53;;;35.88;;
55720;SDS011;41626;53.098;6.168;2023-02-15T16:57:56;45.78;;;36.90;;
55720;SDS011;41626;53.098;6.168;2023-02-15T17:00:25;45.17;;;34.80;;
55720;SDS011;41626;53.098;6.168;2023-02-15T17:02:58;46.03;;;35.88;;
55720;SDS011;41626;53.098;6.168;2023-02-15T17:08:17;51.60;;;39.20;;
55720;SDS011;41626;53.098;6.168;2023-02-15T17:11:03;44.50;;;35.88;;
55720;SDS011;41626;53.098;6.168;2023-02-15T17:13:29;47.45;;;37.97;;
55720;SDS011;41626;53.098;6.168;2023-02-15T17:18:24;47.43;;;37.17;;
55720;SDS011;41626;53.098;6.168;2023-02-15T17:21:20;47.40;;;37.28;;
55720;SDS011;41626;53.098;6.168;2023-02-15T17:23:50;49.30;;;37.57;;
55720;SDS011;41626;53.098;6.168;2023-02-15T17:26:26;47.92;;;37.42;;
55720;SDS011;41626;53.098;6.168;2023-02-15T17:28:55;47.13;;;36.53;;
55720;SDS011;41626;53.098;6.168;2023-02-15T17:31:24;49.85;;;38.35;;
55720;SDS011;41626;53.098;6.168;2023-02-15T17:33:54;50.47;;;39.28;;
55720;SDS011;41626;53.098;6.168;2023-02-15T17:36:22;48.60;;;37.65;;
55720;SDS011;41626;53.098;6.168;2023-02-15T17:39:06;51.13;;;39.67;;
55720;SDS011;41626;53.098;6.168;2023-02-15T17:41:43;52.40;;;38.90;;
55720;SDS011;41626;53.098;6.168;2023-02-15T17:44:09;52.47;;;40.33;;
55720;SDS011;41626;53.098;6.168;2023-02-15T17:46:39;53.00;;;40.45;;
55720;SDS011;41626;53.098;6.168;2023-02-15T17:49:05;53.53;;;39.65;;
55720;SDS011;41626;53.098;6.168;2023-02-15T17:51:31;52.53;;;40.38;;
55720;SDS011;41626;53.098;6.168;2023-02-15T17:54:00;47.30;;;38.70;;
55720;SDS011;41626;53.098;6.168;2023-02-15T17:56:47;52.17;;;39.35;;
55720;SDS011;41626;53.098;6.168;2023-02-15T17:59:13;53.95;;;40.53;;
55720;SDS011;41626;53.098;6.168;2023-02-15T18:01:43;50.25;;;39.50;;
55720;SDS011;41626;53.098;6.168;2023-02-15T18:04:30;50.55;;;39.53;;
55720;SDS011;41626;53.098;6.168;2023-02-15T18:07:17;54.83;;;41.30;;
55720;SDS011;41626;53.098;6.168;2023-02-15T18:10:20;54.43;;;42.20;;
55720;SDS011;41626;53.098;6.168;2023-02-15T18:13:04;51.55;;;39.60;;
55720;SDS011;41626;53.098;6.168;2023-02-15T18:15:30;51.88;;;39.28;;
55720;SDS011;41626;53.098;6.168;2023-02-15T18:17:55;52.35;;;41.20;;
55720;SDS011;41626;53.098;6.168;2023-02-15T18:20:23;51.28;;;41.00;;
55720;SDS011;41626;53.098;6.168;2023-02-15T18:22:53;55.08;;;42.10;;
55720;SDS011;41626;53.098;6.168;2023-02-15T18:25:20;57.97;;;43.72;;
55720;SDS011;41626;53.098;6.168;2023-02-15T18:27:48;58.47;;;43.08;;
55720;SDS011;41626;53.098;6.168;2023-02-15T18:30:14;57.67;;;42.20;;
55720;SDS011;41626;53.098;6.168;2023-02-15T18:32:42;53.70;;;41.20;;
55720;SDS011;41626;53.098;6.168;2023-02-15T18:35:18;59.08;;;45.33;;
55720;SDS011;41626;53.098;6.168;2023-02-15T18:37:45;60.67;;;44.60;;
55720;SDS011;41626;53.098;6.168;2023-02-15T18:40:15;58.57;;;44.93;;
55720;SDS011;41626;53.098;6.168;2023-02-15T18:42:43;59.92;;;44.80;;
55720;SDS011;41626;53.098;6.168;2023-02-15T18:45:25;58.65;;;44.28;;
55720;SDS011;41626;53.098;6.168;2023-02-15T18:48:00;57.47;;;42.65;;